Time;durP1;ratioP1;P1;durP2;ratioP2;P2;SDS_P1;SDS_P2;PMS_P1;PMS_P2;Temp;Humidity;BMP_temperature;BMP_pressure;BME280_temperature;BME280_humidity;BME280_pressure;Samples;Min_cycle;Max_cycle;Signal;HPM_P1;HPM_P2
2022/08/20 00:02:25;;;;;;;11.48;7.60;;;18.70;99.90;;;;;;5045191;28;20080;-47
2022/08/20 00:04:51;;;;;;;11.40;7.57;;;18.60;99.90;;;;;;5061111;28;20048;-54
2022/08/20 00:07:19;;;;;;;16.55;7.93;;;18.70;99.90;;;;;;5061183;28;20040;-52
2022/08/20 00:09:45;;;;;;;11.18;8.00;;;18.70;99.90;;;;;;5044155;28;20048;-49
2022/08/20 00:12:14;;;;;;;12.02;8.00;;;18.70;99.90;;;;;;5044562;28;20053;-51
2022/08/20 00:14:40;;;;;;;18.58;8.82;;;18.70;99.90;;;;;;5062886;28;20045;-55
2022/08/20 00:17:06;;;;;;;14.85;9.35;;;18.70;99.90;;;;;;5043883;28;20075;-50
2022/08/20 00:19:33;;;;;;;17.10;8.75;;;18.70;99.90;;;;;;5062443;28;20040;-52
2022/08/20 00:21:59;;;;;;;11.88;8.00;;;18.70;99.90;;;;;;5061774;28;20069;-48
2022/08/20 00:24:25;;;;;;;14.27;8.98;;;18.60;99.90;;;;;;5062780;28;20061;-52
2022/08/20 00:26:51;;;;;;;15.30;8.63;;;18.60;99.90;;;;;;5062212;28;20559;-51
2022/08/20 00:29:17;;;;;;;10.82;7.95;;;18.60;99.90;;;;;;5062061;28;20048;-53
2022/08/20 00:31:44;;;;;;;15.02;9.45;;;18.60;99.90;;;;;;5044439;28;20037;-52
2022/08/20 00:34:10;;;;;;;15.52;8.23;;;18.60;99.90;;;;;;5062823;28;20113;-50
2022/08/20 00:36:37;;;;;;;15.10;9.40;;;18.50;99.90;;;;;;5040417;28;20045;-51
2022/08/20 00:39:03;;;;;;;10.98;8.10;;;18.50;99.90;;;;;;5058217;28;20048;-51
2022/08/20 00:41:29;;;;;;;19.30;8.57;;;18.50;99.90;;;;;;5061936;28;20100;-51
2022/08/20 00:44:12;;;;;;;12.60;8.30;;;18.40;99.90;;;;;;5044251;28;20700;-50
2022/08/20 00:46:42;;;;;;;11.63;7.93;;;18.40;99.90;;;;;;5061825;28;20507;-50
2022/08/20 00:49:16;;;;;;;11.82;8.75;;;18.40;99.90;;;;;;5043149;28;20553;-48
2022/08/20 00:51:49;;;;;;;14.15;8.48;;;18.30;99.90;;;;;;5060125;28;20044;-51
2022/08/20 00:54:22;;;;;;;13.10;7.97;;;18.20;99.90;;;;;;5044031;28;20064;-54
2022/08/20 00:57:33;;;;;;;11.98;7.45;;;18.20;99.90;;;;;;5060615;28;20052;-52
2022/08/20 01:00:04;;;;;;;12.82;7.88;;;18.10;99.90;;;;;;4943910;28;20125;-51
2022/08/20 01:02:31;;;;;;;9.18;7.35;;;18.10;99.90;;;;;;4944584;28;20078;-52
2022/08/20 01:04:57;;;;;;;14.50;7.85;;;18.00;99.90;;;;;;4960656;28;20119;-48
2022/08/20 01:07:33;;;;;;;9.75;7.60;;;18.00;99.90;;;;;;4944202;28;20058;-48
2022/08/20 01:10:13;;;;;;;12.90;7.88;;;18.00;99.90;;;;;;4943426;28;20098;-49
2022/08/20 01:12:43;;;;;;;8.50;7.43;;;17.90;99.90;;;;;;4942524;28;20058;-48
2022/08/20 01:15:20;;;;;;;14.23;8.45;;;17.90;99.90;;;;;;4959486;28;20063;-48
2022/08/20 01:17:48;;;;;;;12.27;8.00;;;17.90;99.90;;;;;;4959572;28;20066;-51
2022/08/20 01:20:26;;;;;;;14.55;8.23;;;17.80;99.90;;;;;;4962530;28;20047;-52
2022/08/20 01:25:53;;;;;;;11.55;8.73;;;17.80;99.90;;;;;;4963745;28;20140;-52
2022/08/20 01:28:24;;;;;;;9.70;8.68;;;17.70;99.90;;;;;;4963548;28;20129;-48
2022/08/20 01:30:51;;;;;;;12.68;9.65;;;17.70;99.90;;;;;;4962055;28;20059;-53
2022/08/20 01:33:21;;;;;;;12.05;9.45;;;17.60;99.90;;;;;;4946512;28;20065;-52
2022/08/20 01:35:49;;;;;;;16.33;10.07;;;17.60;99.90;;;;;;4955188;28;20062;-53
2022/08/20 01:38:16;;;;;;;14.98;10.25;;;17.60;99.90;;;;;;5042850;28;20045;-50
2022/08/20 01:41:20;;;;;;;21.10;13.82;;;17.60;99.90;;;;;;5044588;28;20048;-53
2022/08/20 01:43:48;;;;;;;;;;;17.50;99.90;;;;;;5044824;28;20514;-51
2022/08/20 01:46:15;;;;;;;20.73;17.65;;;17.50;99.90;;;;;;5043395;28;19932;-52
2022/08/20 01:48:41;;;;;;;22.42;17.70;;;17.50;99.90;;;;;;5044530;28;20049;-52
2022/08/20 01:51:15;;;;;;;20.80;17.35;;;17.40;99.90;;;;;;5043130;28;20053;-53
2022/08/20 01:53:46;;;;;;;16.48;14.40;;;17.40;99.90;;;;;;5045156;28;20049;-50
2022/08/20 01:56:15;;;;;;;18.70;14.32;;;17.30;99.90;;;;;;5044756;28;20557;-50
2022/08/20 01:58:49;;;;;;;19.13;15.20;;;17.30;99.90;;;;;;5044991;28;20053;-52
2022/08/20 02:01:36;;;;;;;16.73;12.32;;;17.20;99.90;;;;;;5040663;28;20056;-52
2022/08/20 02:04:06;;;;;;;16.75;11.80;;;17.20;99.90;;;;;;5034953;28;20041;-53
2022/08/20 02:06:35;;;;;;;19.42;11.80;;;17.20;99.90;;;;;;5043384;28;20045;-48
2022/08/20 02:09:03;;;;;;;15.85;10.90;;;17.20;99.90;;;;;;5042975;28;20482;-52
2022/08/20 02:11:30;;;;;;;22.20;11.40;;;17.10;99.90;;;;;;5044259;28;20146;-51
2022/08/20 02:13:56;;;;;;;14.75;10.35;;;17.10;99.90;;;;;;5042795;28;20052;-49
2022/08/20 02:16:28;;;;;;;17.08;10.88;;;17.10;99.90;;;;;;5042218;28;20053;-49
2022/08/20 02:19:16;;;;;;;15.63;11.25;;;17.10;99.90;;;;;;5044788;28;20385;-53
2022/08/20 02:21:47;;;;;;;12.93;10.50;;;17.10;99.90;;;;;;5046155;28;20085;-51
2022/08/20 02:24:14;;;;;;;13.38;9.85;;;17.10;99.90;;;;;;5045124;28;20055;-51
2022/08/20 02:26:40;;;;;;;13.25;9.93;;;17.10;99.90;;;;;;5063357;28;20071;-50
2022/08/20 02:29:10;;;;;;;13.68;9.60;;;17.10;99.90;;;;;;5063968;28;20445;-53
2022/08/20 02:31:37;;;;;;;13.40;10.13;;;17.10;99.90;;;;;;5063739;28;20048;-51
2022/08/20 02:34:08;;;;;;;12.00;8.70;;;17.10;99.90;;;;;;5063789;28;20044;-48
2022/08/20 02:36:36;;;;;;;10.60;9.13;;;17.00;99.90;;;;;;5041952;28;20085;-51
2022/08/20 02:39:12;;;;;;;14.57;9.30;;;17.00;99.90;;;;;;5044203;28;20578;-49
2022/08/20 02:41:40;;;;;;;11.38;8.65;;;17.00;99.90;;;;;;5055689;28;20083;-51
2022/08/20 02:44:07;;;;;;;13.50;9.05;;;17.00;99.90;;;;;;5063778;28;20074;-49
2022/08/20 02:46:34;;;;;;;11.65;8.05;;;17.00;99.90;;;;;;5063247;28;20041;-52
2022/08/20 02:49:00;;;;;;;12.30;7.72;;;16.90;99.90;;;;;;5063471;28;20410;-49
2022/08/20 02:51:27;;;;;;;12.93;7.88;;;16.90;99.90;;;;;;5062250;28;20037;-48
2022/08/20 02:53:53;;;;;;;19.98;9.20;;;17.00;99.90;;;;;;5045911;28;20048;-52
2022/08/20 02:56:19;;;;;;;11.13;7.63;;;17.00;99.90;;;;;;5063078;28;20094;-48
2022/08/20 02:58:45;;;;;;;10.30;7.55;;;17.00;99.90;;;;;;5061994;28;20083;-51
2022/08/20 03:01:14;;;;;;;12.48;8.20;;;16.90;99.90;;;;;;5063513;28;20055;-52
2022/08/20 03:03:41;;;;;;;10.88;7.20;;;17.00;99.90;;;;;;5063483;28;20491;-50
2022/08/20 03:06:09;;;;;;;11.07;7.30;;;17.00;99.90;;;;;;5063481;28;20102;-51
2022/08/20 03:08:36;;;;;;;11.30;7.18;;;17.00;99.90;;;;;;5062777;28;20055;-50
2022/08/20 03:11:03;;;;;;;10.57;6.40;;;17.00;99.90;;;;;;5063868;28;20048;-57
2022/08/20 03:13:29;;;;;;;11.75;6.68;;;17.10;99.90;;;;;;5063585;28;20052;-51
2022/08/20 03:15:58;;;;;;;12.93;6.93;;;17.00;99.90;;;;;;5043885;28;20090;-51
2022/08/20 03:18:31;;;;;;;12.65;7.45;;;17.10;99.90;;;;;;5044609;28;20663;-52
2022/08/20 03:20:58;;;;;;;9.18;6.72;;;17.10;99.90;;;;;;5059701;28;20045;-53
2022/08/20 03:23:24;;;;;;;12.38;6.53;;;17.10;99.90;;;;;;5062710;28;20157;-51
2022/08/20 03:25:51;;;;;;;12.02;6.32;;;17.00;99.90;;;;;;5062749;28;20520;-48
2022/08/20 03:28:18;;;;;;;9.93;5.80;;;17.10;99.90;;;;;;5062867;28;20048;-50
2022/08/20 03:30:45;;;;;;;11.60;5.88;;;17.00;99.90;;;;;;5043330;28;20190;-49
2022/08/20 03:33:11;;;;;;;10.32;6.30;;;16.90;99.90;;;;;;5062524;28;20277;-48
2022/08/20 03:35:37;;;;;;;11.52;5.70;;;16.90;99.90;;;;;;5043926;28;20815;-51
2022/08/20 03:38:12;;;;;;;14.52;6.18;;;16.90;99.90;;;;;;5062365;28;20396;-51
2022/08/20 03:40:38;;;;;;;12.00;5.78;;;16.80;99.90;;;;;;5062065;28;20038;-49
2022/08/20 03:43:08;;;;;;;10.10;6.25;;;16.90;99.90;;;;;;5062924;28;20089;-50
2022/08/20 03:45:36;;;;;;;10.55;5.65;;;16.80;99.90;;;;;;5062228;28;20087;-49
2022/08/20 03:48:06;;;;;;;10.77;5.75;;;16.80;99.90;;;;;;5062863;28;20051;-50
2022/08/20 03:50:33;;;;;;;10.45;5.57;;;16.80;99.90;;;;;;5059651;28;20928;-48
2022/08/20 03:53:00;;;;;;;7.53;4.95;;;16.80;99.90;;;;;;5063097;28;20052;-49
2022/08/20 03:55:28;;;;;;;13.48;5.47;;;16.70;99.90;;;;;;5062818;28;20102;-50
2022/08/20 03:57:57;;;;;;;10.30;5.40;;;16.70;99.90;;;;;;5062089;28;20474;-52
2022/08/20 04:00:35;;;;;;;10.43;6.00;;;16.70;99.90;;;;;;5061945;28;20497;-48
2022/08/20 04:03:02;;;;;;;11.20;6.40;;;16.70;99.90;;;;;;5040418;28;20147;-51
2022/08/20 04:05:30;;;;;;;10.52;5.50;;;16.70;99.90;;;;;;5062984;28;20052;-51
2022/08/20 04:07:58;;;;;;;12.95;5.40;;;16.70;99.90;;;;;;5061538;28;20040;-47
2022/08/20 04:10:24;;;;;;;9.27;4.78;;;16.70;99.90;;;;;;5062165;28;20178;-48
2022/08/20 04:12:50;;;;;;;10.98;5.63;;;16.70;99.90;;;;;;5056952;28;20056;-51
2022/08/20 04:15:17;;;;;;;13.07;4.82;;;16.70;99.90;;;;;;5063010;28;20494;-50
2022/08/20 04:17:46;;;;;;;10.13;4.72;;;16.70;99.90;;;;;;5061999;28;20048;-50
2022/08/20 04:20:21;;;;;;;10.00;4.82;;;16.70;99.90;;;;;;5062313;28;20053;-49
2022/08/20 04:22:47;;;;;;;8.50;4.75;;;16.70;99.90;;;;;;5060886;28;20057;-49
2022/08/20 04:25:13;;;;;;;8.05;4.47;;;16.70;99.90;;;;;;5061570;28;20063;-52
2022/08/20 04:27:40;;;;;;;10.55;4.90;;;16.60;99.90;;;;;;5061920;28;20092;-51
2022/08/20 04:30:13;;;;;;;12.02;5.30;;;16.60;99.90;;;;;;5062655;28;20090;-54
2022/08/20 04:32:40;;;;;;;12.48;4.65;;;16.60;99.90;;;;;;5062136;28;20049;-52
2022/08/20 04:35:10;;;;;;;13.50;4.53;;;16.50;99.90;;;;;;5063369;28;20041;-49
2022/08/20 04:37:40;;;;;;;8.95;4.28;;;16.50;99.90;;;;;;5062272;28;20057;-50
2022/08/20 04:42:56;;;;;;;10.80;4.60;;;16.40;99.90;;;;;;5058824;28;20098;-51
2022/08/20 04:45:24;;;;;;;8.68;4.20;;;16.40;99.90;;;;;;5061939;28;20132;-51
2022/08/20 04:47:50;;;;;;;12.15;6.15;;;16.40;99.90;;;;;;5062069;28;20061;-47
2022/08/20 04:50:18;;;;;;;8.98;4.93;;;16.40;99.90;;;;;;5061913;28;20044;-50
2022/08/20 04:52:47;;;;;;;10.35;5.20;;;16.30;99.90;;;;;;5028437;28;20064;-47
2022/08/20 04:55:15;;;;;;;12.70;5.25;;;16.30;99.90;;;;;;5026991;28;20084;-47
2022/08/20 04:57:42;;;;;;;10.77;5.30;;;16.30;99.90;;;;;;5045941;28;20044;-48
2022/08/20 05:00:13;;;;;;;9.10;5.10;;;16.30;99.90;;;;;;5044702;28;20867;-49
2022/08/20 05:02:46;;;;;;;10.57;4.68;;;16.20;99.90;;;;;;5045400;28;20067;-48
2022/08/20 05:05:13;;;;;;;11.98;5.25;;;16.20;99.90;;;;;;5044722;28;20202;-49
2022/08/20 05:07:42;;;;;;;10.23;5.28;;;16.20;99.90;;;;;;5035055;28;20135;-48
2022/08/20 05:10:12;;;;;;;12.18;5.25;;;16.20;99.90;;;;;;5044979;28;20056;-51
2022/08/20 05:12:41;;;;;;;9.30;5.38;;;16.20;99.90;;;;;;5044980;28;20057;-48
2022/08/20 05:15:12;;;;;;;13.40;5.57;;;16.20;99.90;;;;;;5044848;28;20388;-52
2022/08/20 05:17:41;;;;;;;12.55;4.93;;;16.20;99.90;;;;;;5044448;28;20095;-50
2022/08/20 05:20:11;;;;;;;11.68;5.07;;;16.30;99.90;;;;;;5036914;28;20142;-51
2022/08/20 05:22:37;;;;;;;7.70;4.70;;;16.50;99.90;;;;;;5045509;28;20083;-48
2022/08/20 05:25:04;;;;;;;11.80;6.07;;;16.60;99.90;;;;;;5045397;28;20048;-50
2022/08/20 05:27:31;;;;;;;10.00;5.00;;;16.80;99.90;;;;;;5045240;28;20372;-50
2022/08/20 05:30:07;;;;;;;10.50;4.70;;;17.50;99.90;;;;;;5027367;28;20052;-48
2022/08/20 05:32:35;;;;;;;8.60;3.80;;;18.80;99.90;;;;;;5044994;28;20056;-51
2022/08/20 05:35:04;;;;;;;9.02;4.38;;;20.00;99.90;;;;;;5045306;28;20391;-51
2022/08/20 05:37:30;;;;;;;8.25;4.15;;;21.00;99.90;;;;;;5022115;28;20048;-49
2022/08/20 05:39:56;;;;;;;6.15;3.85;;;22.00;99.90;;;;;;5044738;28;20049;-50
2022/08/20 05:42:22;;;;;;;8.95;4.65;;;22.60;99.90;;;;;;5045008;28;20048;-50
2022/08/20 05:44:49;;;;;;;10.23;4.80;;;23.20;99.90;;;;;;5031115;28;20055;-49
2022/08/20 05:47:17;;;;;;;9.18;3.70;;;23.70;99.90;;;;;;5044725;28;20114;-52
2022/08/20 05:49:45;;;;;;;10.88;3.85;;;24.20;99.90;;;;;;5045460;28;20056;-52
2022/08/20 05:52:11;;;;;;;9.07;4.10;;;24.70;99.90;;;;;;5042838;28;20144;-53
2022/08/20 05:54:38;;;;;;;9.32;3.78;;;24.80;99.90;;;;;;5045879;28;20091;-51
2022/08/20 05:57:04;;;;;;;12.23;4.68;;;25.00;99.90;;;;;;5045034;28;20056;-50
2022/08/20 05:59:35;;;;;;;10.90;3.97;;;24.70;99.90;;;;;;5027703;28;20128;-48
2022/08/20 06:04:23;;;;;;;6.57;3.85;;;24.50;99.90;;;;;;5045005;28;20056;-51
2022/08/20 06:04:48;;;;;;;6.75;3.50;;;24.70;99.90;;;;;;5045148;28;20094;-49
2022/08/20 06:07:15;;;;;;;10.10;4.38;;;25.10;99.90;;;;;;5044898;28;20084;-50
2022/08/20 06:09:41;;;;;;;7.85;4.13;;;25.60;99.90;;;;;;5043448;28;20045;-48
2022/08/20 06:12:08;;;;;;;8.52;3.47;;;26.10;99.50;;;;;;5030667;28;20535;-52
2022/08/20 06:14:35;;;;;;;6.90;3.33;;;26.40;99.30;;;;;;5027296;28;20053;-49
2022/08/20 06:17:19;;;;;;;8.27;3.30;;;26.80;98.40;;;;;;5035234;28;20053;-49
2022/08/20 06:19:46;;;;;;;7.28;2.70;;;27.50;96.70;;;;;;5017340;28;20049;-53
2022/08/20 06:22:13;;;;;;;7.82;2.90;;;27.90;96.20;;;;;;5019772;28;20060;-54
2022/08/20 06:24:40;;;;;;;7.75;3.28;;;27.90;95.30;;;;;;5033299;28;20064;-49
2022/08/20 06:27:06;;;;;;;9.65;2.90;;;28.00;95.00;;;;;;5043280;28;20060;-52
2022/08/20 06:29:35;;;;;;;8.75;3.22;;;28.10;94.70;;;;;;5043667;28;20055;-49
2022/08/20 06:32:01;;;;;;;8.55;2.63;;;28.50;94.30;;;;;;5043888;28;20056;-51
2022/08/20 06:34:27;;;;;;;7.47;2.85;;;29.00;93.80;;;;;;5039513;28;20056;-53
2022/08/20 06:36:55;;;;;;;8.90;2.90;;;29.50;93.00;;;;;;5043566;28;20499;-49
2022/08/20 06:39:25;;;;;;;7.63;2.90;;;29.90;92.70;;;;;;5029229;28;20061;-50
2022/08/20 06:41:51;;;;;;;7.97;2.47;;;30.10;91.80;;;;;;5043364;28;20504;-51
2022/08/20 06:44:18;;;;;;;5.00;2.47;;;29.50;91.80;;;;;;5043442;28;20067;-51
2022/08/20 06:46:44;;;;;;;7.57;2.97;;;28.90;92.40;;;;;;5043464;28;20515;-52
2022/08/20 06:49:10;;;;;;;9.70;2.97;;;28.20;93.10;;;;;;5043937;28;20106;-50
2022/08/20 06:51:37;;;;;;;5.97;2.90;;;27.90;93.40;;;;;;5023348;28;20049;-52
2022/08/20 06:54:04;;;;;;;7.97;2.90;;;27.80;93.60;;;;;;5023181;28;20057;-52
2022/08/20 06:56:32;;;;;;;7.57;2.75;;;27.90;93.70;;;;;;5022201;28;20060;-52
2022/08/20 06:58:58;;;;;;;8.80;2.90;;;28.20;93.30;;;;;;5021187;28;20179;-52
2022/08/20 07:01:24;;;;;;;6.88;2.30;;;28.50;93.00;;;;;;5022255;28;20052;-52
2022/08/20 07:03:51;;;;;;;7.35;2.45;;;28.80;92.50;;;;;;5023385;28;20049;-52
2022/08/20 07:06:17;;;;;;;7.60;2.88;;;28.50;92.80;;;;;;5023127;28;20093;-54
2022/08/20 07:08:44;;;;;;;4.68;2.13;;;28.10;92.30;;;;;;5012560;28;20503;-50
2022/08/20 07:11:11;;;;;;;9.05;3.08;;;27.60;92.30;;;;;;5023409;28;20049;-53
2022/08/20 07:13:39;;;;;;;9.43;2.67;;;27.30;93.20;;;;;;5022458;28;20100;-53
2022/08/20 07:16:06;;;;;;;9.98;2.55;;;27.20;92.90;;;;;;5023107;28;20049;-56
2022/08/20 07:18:32;;;;;;;9.27;3.13;;;27.00;93.20;;;;;;5023451;28;20037;-51
2022/08/20 07:20:58;;;;;;;6.30;2.40;;;27.00;93.00;;;;;;5023248;28;20091;-51
2022/08/20 07:23:25;;;;;;;5.88;2.35;;;26.60;93.60;;;;;;5022682;28;20049;-54
2022/08/20 07:25:52;;;;;;;7.97;2.22;;;26.80;93.30;;;;;;5022721;28;20056;-54
2022/08/20 07:28:24;;;;;;;8.05;2.38;;;26.80;92.10;;;;;;5022997;28;20129;-52
2022/08/20 07:33:38;;;;;;;4.78;1.80;;;26.70;92.20;;;;;;5022754;28;20053;-55
2022/08/20 07:36:05;;;;;;;8.23;2.30;;;26.70;92.60;;;;;;5020664;28;20060;-52
2022/08/20 07:38:33;;;;;;;7.72;2.45;;;26.40;91.90;;;;;;5020156;28;20056;-54
2022/08/20 07:41:02;;;;;;;4.53;1.80;;;26.20;92.10;;;;;;5022306;28;20052;-50
2022/08/20 07:43:29;;;;;;;7.40;2.50;;;26.10;91.70;;;;;;5022569;28;20045;-52
2022/08/20 07:46:00;;;;;;;7.50;2.15;;;26.10;91.80;;;;;;5021728;28;20558;-53
2022/08/20 07:48:30;;;;;;;8.95;2.70;;;26.10;92.30;;;;;;5022766;28;20073;-53
2022/08/20 07:51:03;;;;;;;7.72;2.70;;;26.10;92.70;;;;;;5023352;28;20053;-56
2022/08/20 07:53:32;;;;;;;8.70;2.35;;;25.90;91.80;;;;;;5042718;28;20064;-51
2022/08/20 07:55:59;;;;;;;7.88;2.72;;;26.00;92.70;;;;;;5041760;28;20554;-54
2022/08/20 07:58:25;;;;;;;5.55;2.08;;;25.90;92.40;;;;;;5039201;28;20055;-52
2022/08/20 08:00:51;;;;;;;9.32;3.58;;;25.70;92.10;;;;;;5030892;28;21608;-55
2022/08/20 08:03:17;;;;;;;8.85;2.42;;;25.80;92.00;;;;;;5032656;28;20120;-53
2022/08/20 08:05:47;;;;;;;7.40;1.88;;;25.80;92.00;;;;;;5019110;28;20110;-53
2022/08/20 08:08:21;;;;;;;9.60;2.10;;;25.70;92.50;;;;;;5030703;28;20053;-53
2022/08/20 08:11:01;;;;;;;8.02;2.78;;;25.90;92.80;;;;;;5023261;28;20146;-56
2022/08/20 08:13:31;;;;;;;6.55;2.30;;;25.90;92.40;;;;;;5012344;28;20053;-54
2022/08/20 08:16:00;;;;;;;5.68;2.05;;;25.70;92.90;;;;;;5042953;28;20049;-54
2022/08/20 08:18:32;;;;;;;6.88;2.40;;;25.90;92.70;;;;;;5042085;28;20049;-54
2022/08/20 08:20:59;;;;;;;8.35;2.22;;;25.80;91.10;;;;;;5027251;28;20049;-56
2022/08/20 08:23:26;;;;;;;7.05;2.30;;;25.80;91.40;;;;;;5026267;28;20069;-59
2022/08/20 08:25:52;;;;;;;7.00;2.10;;;25.80;91.80;;;;;;5008066;28;20514;-56
2022/08/20 08:28:19;;;;;;;9.27;2.15;;;25.80;91.70;;;;;;5044108;28;20045;-54
2022/08/20 08:30:47;;;;;;;7.18;2.30;;;25.80;91.10;;;;;;5046534;28;20057;-53
2022/08/20 08:33:32;;;;;;;5.97;2.17;;;25.70;90.40;;;;;;5046056;28;20056;-54
2022/08/20 08:36:13;;;;;;;5.65;2.15;;;25.70;90.40;;;;;;5046753;28;20052;-54
2022/08/20 08:38:42;;;;;;;9.43;2.30;;;25.60;90.50;;;;;;5042288;28;20552;-54
2022/08/20 08:41:48;;;;;;;7.20;1.90;;;25.50;91.20;;;;;;5028396;28;20130;-54
2022/08/20 08:44:23;;;;;;;7.68;2.40;;;25.50;90.70;;;;;;4945541;28;20070;-56
2022/08/20 08:46:52;;;;;;;7.43;2.40;;;25.20;91.00;;;;;;4943733;29;20063;-56
2022/08/20 08:49:23;;;;;;;5.75;1.98;;;25.30;91.10;;;;;;4927568;29;20047;-54
2022/08/20 08:51:57;;;;;;;7.53;2.63;;;25.40;90.80;;;;;;4931691;29;20059;-55
2022/08/20 08:54:27;;;;;;;11.85;2.50;;;25.50;91.10;;;;;;4950753;28;20433;-55
2022/08/20 08:56:53;;;;;;;7.80;2.67;;;25.50;90.30;;;;;;4930406;29;20113;-56
2022/08/20 08:59:21;;;;;;;8.60;2.78;;;25.50;90.60;;;;;;4956575;28;20090;-56
2022/08/20 09:01:54;;;;;;;9.38;2.25;;;25.50;90.30;;;;;;4951283;28;20466;-55
2022/08/20 09:04:21;;;;;;;7.93;2.42;;;25.50;90.60;;;;;;4939069;28;20059;-55
2022/08/20 09:06:52;;;;;;;5.30;2.35;;;25.50;91.30;;;;;;4950167;28;20085;-55
2022/08/20 09:09:22;;;;;;;7.68;2.03;;;25.40;90.10;;;;;;4924054;29;20817;-58
2022/08/20 09:11:51;;;;;;;8.40;2.40;;;25.50;90.40;;;;;;4945378;28;20058;-56
2022/08/20 09:14:18;;;;;;;6.72;2.53;;;25.60;90.90;;;;;;4933478;28;20074;-56
2022/08/20 09:16:45;;;;;;;6.70;2.30;;;25.70;89.60;;;;;;4949669;28;20061;-55
2022/08/20 09:19:11;;;;;;;8.57;2.13;;;25.80;89.40;;;;;;4974182;28;20123;-57
2022/08/20 09:21:38;;;;;;;7.18;2.55;;;25.90;90.60;;;;;;5045108;28;20053;-56
2022/08/20 09:24:04;;;;;;;6.28;2.30;;;25.60;90.20;;;;;;5043559;28;20083;-55
2022/08/20 09:26:30;;;;;;;7.22;2.20;;;25.50;88.70;;;;;;5045765;28;20144;-56
2022/08/20 09:28:56;;;;;;;6.28;1.90;;;25.70;90.20;;;;;;5045504;28;20073;-55
2022/08/20 09:31:23;;;;;;;6.70;2.15;;;25.70;90.40;;;;;;5044476;28;20551;-55
2022/08/20 09:33:50;;;;;;;5.53;2.58;;;25.70;89.90;;;;;;5044662;28;20152;-56
2022/08/20 09:36:16;;;;;;;9.23;2.20;;;25.70;90.10;;;;;;5044536;28;20784;-55
2022/08/20 09:38:47;;;;;;;7.65;2.55;;;25.70;90.40;;;;;;5024172;28;20061;-56
2022/08/20 09:41:13;;;;;;;7.78;2.20;;;25.80;91.10;;;;;;5043206;28;20131;-55
2022/08/20 09:43:39;;;;;;;8.15;2.30;;;26.00;90.70;;;;;;5044543;28;20053;-56
2022/08/20 09:46:05;;;;;;;7.45;2.55;;;26.00;91.10;;;;;;5031237;28;20056;-55
2022/08/20 09:48:31;;;;;;;6.55;2.00;;;26.10;91.60;;;;;;5031502;28;20589;-56
2022/08/20 09:50:57;;;;;;;7.93;2.25;;;26.10;90.50;;;;;;5024358;28;20052;-55
2022/08/20 09:53:23;;;;;;;6.38;2.20;;;26.20;90.90;;;;;;5044111;28;20140;-56
2022/08/20 09:55:52;;;;;;;5.13;2.05;;;26.20;90.50;;;;;;5044890;28;20068;-57
2022/08/20 09:58:30;;;;;;;9.30;2.35;;;26.30;89.90;;;;;;5029513;28;20049;-57
2022/08/20 10:00:57;;;;;;;6.40;1.92;;;26.20;89.80;;;;;;5046167;28;20079;-56
2022/08/20 10:03:23;;;;;;;5.72;2.30;;;26.30;89.90;;;;;;5044733;28;20135;-56
2022/08/20 10:05:49;;;;;;;8.25;2.72;;;26.40;88.60;;;;;;5045179;28;20088;-56
2022/08/20 10:08:15;;;;;;;7.45;2.47;;;26.30;88.60;;;;;;5044982;28;20132;-55
2022/08/20 10:10:41;;;;;;;5.80;2.15;;;25.90;89.10;;;;;;5040875;28;20149;-55
2022/08/20 10:13:07;;;;;;;8.50;2.38;;;25.80;90.20;;;;;;5042133;28;20051;-56
2022/08/20 10:15:33;;;;;;;7.60;1.80;;;26.00;90.30;;;;;;5043474;28;20052;-56
2022/08/20 10:18:04;;;;;;;5.82;2.08;;;26.40;90.50;;;;;;5044350;28;20055;-57
2022/08/20 10:20:30;;;;;;;7.28;2.15;;;26.20;89.90;;;;;;5041513;28;20061;-54
2022/08/20 10:22:56;;;;;;;8.52;2.25;;;26.10;88.60;;;;;;5032696;28;20060;-58
2022/08/20 10:25:22;;;;;;;5.72;1.90;;;26.20;89.60;;;;;;5044472;28;20048;-56
2022/08/20 10:27:48;;;;;;;8.13;2.88;;;26.30;88.30;;;;;;5044231;28;20045;-57
2022/08/20 10:30:24;;;;;;;5.47;2.10;;;26.40;89.10;;;;;;5045299;28;20078;-56
2022/08/20 10:32:50;;;;;;;7.03;2.30;;;26.30;88.90;;;;;;5043671;28;20949;-56
2022/08/20 10:35:17;;;;;;;9.35;2.47;;;26.10;90.00;;;;;;5043749;28;20551;-57
2022/08/20 10:37:44;;;;;;;6.50;2.45;;;25.90;90.40;;;;;;5044116;28;20152;-56
2022/08/20 10:40:10;;;;;;;12.40;2.88;;;25.80;90.50;;;;;;5044205;28;20102;-56
2022/08/20 10:42:36;;;;;;;8.27;2.22;;;25.60;90.60;;;;;;5044871;28;20045;-56
2022/08/20 10:45:02;;;;;;;5.93;2.20;;;25.50;90.40;;;;;;5043990;28;20148;-56
2022/08/20 10:47:31;;;;;;;6.13;2.28;;;25.50;90.70;;;;;;5044022;28;20098;-57
2022/08/20 10:50:00;;;;;;;8.10;2.17;;;25.50;90.70;;;;;;5042509;28;20048;-56
2022/08/20 10:52:27;;;;;;;8.07;2.70;;;25.80;90.60;;;;;;5037259;28;20065;-56
2022/08/20 10:54:53;;;;;;;7.10;2.47;;;25.90;89.90;;;;;;5043942;28;20067;-57
2022/08/20 10:57:30;;;;;;;7.88;2.13;;;26.20;90.00;;;;;;5043684;28;20128;-56
2022/08/20 10:59:58;;;;;;;6.57;2.47;;;26.00;88.00;;;;;;5034972;28;20065;-55
2022/08/20 11:02:25;;;;;;;8.57;2.30;;;25.90;89.10;;;;;;5043841;28;20048;-56
2022/08/20 11:04:52;;;;;;;7.72;2.42;;;25.60;89.70;;;;;;5043731;28;20419;-56
2022/08/20 11:07:28;;;;;;;8.98;3.22;;;25.40;90.20;;;;;;5042888;28;20098;-56
2022/08/20 11:09:55;;;;;;;7.38;2.30;;;25.20;90.50;;;;;;5043068;28;20507;-54
2022/08/20 11:12:22;;;;;;;8.55;2.75;;;25.10;90.80;;;;;;5028289;28;20057;-53
2022/08/20 11:14:50;;;;;;;6.38;2.00;;;24.90;90.70;;;;;;5042706;28;20049;-54
2022/08/20 11:17:24;;;;;;;8.90;3.00;;;24.90;90.60;;;;;;5043650;28;20048;-56
2022/08/20 11:19:57;;;;;;;6.60;1.73;;;24.70;90.20;;;;;;5037781;28;20132;-55
2022/08/20 11:22:23;;;;;;;5.95;1.70;;;24.50;90.40;;;;;;5043847;28;20048;-55
2022/08/20 11:24:49;;;;;;;8.00;2.13;;;24.40;90.70;;;;;;5032077;28;20149;-54
2022/08/20 11:27:23;;;;;;;8.57;2.30;;;24.20;90.90;;;;;;5043456;28;20127;-56
2022/08/20 11:29:50;;;;;;;6.35;2.08;;;24.10;91.10;;;;;;5043781;28;20136;-60
2022/08/20 11:32:17;;;;;;;8.15;2.15;;;24.10;91.10;;;;;;5044155;28;20052;-54
2022/08/20 11:34:43;;;;;;;6.07;2.03;;;24.10;88.60;;;;;;5026027;28;20049;-55
2022/08/20 11:37:13;;;;;;;8.43;1.88;;;24.20;89.30;;;;;;5042843;28;20092;-54
2022/08/20 11:39:43;;;;;;;6.97;2.38;;;24.40;87.10;;;;;;5031353;28;20056;-54
2022/08/20 11:42:10;;;;;;;5.43;2.03;;;24.60;87.50;;;;;;5026912;28;20113;-55
2022/08/20 11:44:36;;;;;;;6.82;2.17;;;24.90;86.80;;;;;;5030539;28;20081;-53
2022/08/20 11:47:04;;;;;;;7.03;2.25;;;25.10;85.20;;;;;;5042443;28;20156;-56
2022/08/20 11:49:33;;;;;;;7.40;2.10;;;25.20;85.10;;;;;;5024658;28;20063;-56
2022/08/20 11:51:59;;;;;;;8.55;2.10;;;25.30;85.50;;;;;;5036213;28;20069;-56
2022/08/20 11:54:27;;;;;;;8.02;2.47;;;25.60;85.70;;;;;;5043697;28;20052;-54
2022/08/20 11:56:58;;;;;;;8.23;2.30;;;25.50;85.00;;;;;;5042249;28;20518;-54
2022/08/20 11:59:27;;;;;;;7.95;2.22;;;25.40;85.30;;;;;;5032619;28;20049;-54
2022/08/20 12:01:57;;;;;;;10.60;2.65;;;25.10;83.70;;;;;;5041986;28;20867;-57
2022/08/20 12:04:23;;;;;;;7.28;2.35;;;25.10;85.10;;;;;;5042470;28;20049;-56
2022/08/20 12:06:49;;;;;;;9.35;2.30;;;25.00;85.80;;;;;;5042870;28;20052;-55
2022/08/20 12:09:16;;;;;;;7.53;2.38;;;24.80;86.40;;;;;;5025271;28;20476;-55
2022/08/20 12:11:43;;;;;;;9.63;3.33;;;24.60;86.90;;;;;;5043158;28;20474;-55
2022/08/20 12:14:09;;;;;;;7.20;2.85;;;24.30;87.40;;;;;;5043375;28;20044;-55
2022/08/20 12:16:35;;;;;;;11.10;2.75;;;24.60;88.60;;;;;;5043521;28;20051;-54
2022/08/20 12:19:01;;;;;;;8.05;2.97;;;24.90;89.10;;;;;;5042331;28;20049;-56
2022/08/20 12:21:27;;;;;;;10.40;2.90;;;25.30;89.50;;;;;;5043354;28;20537;-56
2022/08/20 12:23:54;;;;;;;9.10;2.70;;;25.50;86.80;;;;;;5030033;28;20075;-56
2022/08/20 12:26:20;;;;;;;10.35;2.78;;;25.50;87.80;;;;;;5043261;28;20453;-55
2022/08/20 12:28:46;;;;;;;9.32;3.70;;;25.50;89.30;;;;;;5042174;28;20045;-55
2022/08/20 12:31:12;;;;;;;9.40;2.60;;;25.40;86.90;;;;;;5042239;28;20091;-57
2022/08/20 12:33:38;;;;;;;8.93;3.08;;;25.30;86.90;;;;;;5042157;28;20052;-55
2022/08/20 12:36:04;;;;;;;12.20;3.65;;;25.30;87.30;;;;;;5041440;28;20049;-56
2022/08/20 12:38:30;;;;;;;8.82;3.17;;;25.10;88.90;;;;;;5021892;28;20060;-55
2022/08/20 12:40:56;;;;;;;7.95;3.00;;;24.90;88.50;;;;;;5041745;28;20082;-55
2022/08/20 12:43:22;;;;;;;7.30;3.15;;;25.00;90.20;;;;;;5026653;28;20049;-57
2022/08/20 12:45:48;;;;;;;25.73;8.27;;;25.30;90.60;;;;;;5041352;28;20061;-56
2022/08/20 12:48:14;;;;;;;16.15;5.75;;;25.60;90.50;;;;;;5023873;28;20495;-57
2022/08/20 12:50:44;;;;;;;35.38;6.97;;;25.70;89.20;;;;;;5041605;28;20052;-53
2022/08/20 12:53:11;;;;;;;12.82;3.90;;;25.80;90.20;;;;;;5021178;28;20061;-56
2022/08/20 12:55:37;;;;;;;7.75;2.55;;;25.60;88.80;;;;;;5011475;28;20060;-56
2022/08/20 12:58:07;;;;;;;8.43;2.33;;;25.70;89.40;;;;;;5022942;28;20450;-56
2022/08/20 13:00:36;;;;;;;7.63;2.28;;;25.80;89.80;;;;;;5018046;28;20049;-57